createdAt,value
2022-12-31T00:00:58.499Z,1001.07
2022-12-31T00:01:58.706Z,1001.01
2022-12-31T00:02:58.515Z,1000.98
2022-12-31T00:03:58.404Z,1001.00
2022-12-31T00:04:58.372Z,1000.98
2022-12-31T00:05:58.264Z,1000.98
2022-12-31T00:06:58.373Z,1001.03
2022-12-31T00:07:58.263Z,1000.94
2022-12-31T00:08:58.137Z,1000.96
2022-12-31T00:09:58.144Z,1001.00
2022-12-31T00:10:58.138Z,1001.09
2022-12-31T00:11:58.257Z,1001.07
2022-12-31T00:13:58.142Z,1001.11
2022-12-31T00:14:58.153Z,1001.13
2022-12-31T00:15:58.049Z,1001.12
2022-12-31T00:16:58.070Z,1001.14
2022-12-31T00:17:57.785Z,1001.19
2022-12-31T00:18:57.906Z,1001.26
2022-12-31T00:20:57.546Z,1001.18
2022-12-31T00:21:57.550Z,1001.10
2022-12-31T00:22:57.552Z,1001.10
2022-12-31T00:23:57.435Z,1001.13
2022-12-31T00:24:57.553Z,1001.01
2022-12-31T00:25:57.435Z,1000.90
2022-12-31T00:26:57.313Z,1000.99
2022-12-31T00:27:57.314Z,1001.02
2022-12-31T00:28:57.195Z,1000.96
2022-12-31T00:30:02.531Z,1000.97
2022-12-31T00:30:57.245Z,1001.04
2022-12-31T00:31:57.109Z,1001.02
2022-12-31T00:32:57.088Z,1001.01
2022-12-31T00:33:57.085Z,1000.98
2022-12-31T00:34:56.961Z,1000.98
2022-12-31T00:35:56.965Z,1000.97
2022-12-31T00:36:56.967Z,1000.98
2022-12-31T00:37:56.853Z,1001.04
2022-12-31T00:38:56.859Z,1000.95
2022-12-31T00:39:56.735Z,1000.92
2022-12-31T00:40:56.729Z,1000.89
2022-12-31T00:41:56.743Z,1000.94
2022-12-31T00:42:56.619Z,1000.90
2022-12-31T00:43:56.617Z,1000.95
2022-12-31T00:44:56.626Z,1000.87
2022-12-31T00:45:56.634Z,1000.92
2022-12-31T00:46:56.498Z,1000.92
2022-12-31T00:47:56.403Z,1000.94
2022-12-31T00:48:56.456Z,1000.90
2022-12-31T20:43:02.696Z,1005.57
2022-12-31T20:44:02.591Z,1005.61
2022-12-31T20:45:02.555Z,1005.52
2022-12-31T20:46:02.447Z,1005.57
2022-12-31T20:47:02.432Z,1005.54
2022-12-31T20:48:02.420Z,1005.58
2022-12-31T20:49:02.321Z,1005.65
2022-12-31T20:50:11.417Z,1005.62
2022-12-31T20:51:02.199Z,1005.68
2022-12-31T20:52:02.208Z,1005.66
2022-12-31T20:53:02.201Z,1005.78
2022-12-31T20:54:02.083Z,1005.77
2022-12-31T20:55:02.086Z,1005.71
2022-12-31T20:56:02.077Z,1005.67
2022-12-31T20:57:01.970Z,1005.60
2022-12-31T20:58:02.097Z,1005.63
2022-12-31T20:59:01.960Z,1005.68
2022-12-31T21:00:01.898Z,1005.73
2022-12-31T21:01:02.083Z,1005.74
2022-12-31T21:03:10.814Z,1005.72
2022-12-31T21:04:06.712Z,1005.76
2022-12-31T21:05:01.867Z,1005.73
2022-12-31T21:06:01.770Z,1005.67
2022-12-31T21:07:01.613Z,1005.78
2022-12-31T21:08:01.503Z,1005.86
2022-12-31T21:09:01.503Z,1005.83
2022-12-31T21:10:01.388Z,1005.95
2022-12-31T21:11:01.380Z,1005.90
2022-12-31T21:12:01.389Z,1005.91
2022-12-31T21:13:01.274Z,1005.91
2022-12-31T21:14:01.267Z,1005.89
2022-12-31T21:15:01.289Z,1005.96
2022-12-31T21:16:01.203Z,1005.91
2022-12-31T21:17:01.155Z,1005.95
2022-12-31T21:18:01.147Z,1005.90
2022-12-31T21:19:01.032Z,1005.97
2022-12-31T21:20:01.047Z,1005.96
2022-12-31T21:21:01.029Z,1006.00
2022-12-31T21:22:00.915Z,1006.00
2022-12-31T21:23:01.003Z,1005.95
2022-12-31T21:24:00.912Z,1005.97
2022-12-31T21:25:00.893Z,1006.04
2022-12-31T21:26:00.799Z,1006.10
2022-12-31T21:27:00.765Z,1006.09
2022-12-31T21:28:00.775Z,1006.09
2022-12-31T21:29:00.688Z,1005.98
2022-12-31T21:30:26.807Z,1005.98
2022-12-31T21:31:00.711Z,1005.86
2022-12-31T21:32:00.659Z,1005.92
2022-12-31T21:33:00.530Z,1005.88
2022-12-31T21:34:00.540Z,1005.96
2022-12-31T21:35:40.010Z,1006.00
2022-12-31T21:36:04.438Z,1006.05
2022-12-31T21:37:00.425Z,1006.05
2022-12-31T21:38:00.723Z,1006.00
2022-12-31T21:39:00.298Z,1006.08
2022-12-31T21:40:00.302Z,1006.08
2022-12-31T21:41:00.304Z,1006.15
2022-12-31T21:42:00.185Z,1006.02
2022-12-31T21:43:00.181Z,1006.05
2022-12-31T21:44:00.195Z,1006.12
2022-12-31T21:45:00.103Z,1006.09
2022-12-31T21:46:00.149Z,1006.01
2022-12-31T21:47:33.942Z,1005.95
2022-12-31T21:47:59.952Z,1006.08
2022-12-31T21:48:59.971Z,1005.97
2022-12-31T21:49:59.830Z,1006.06
2022-12-31T21:50:59.830Z,1006.11
2022-12-31T21:51:59.830Z,1006.15
2022-12-31T21:52:59.728Z,1006.07
2022-12-31T21:53:59.720Z,1006.12
2022-12-31T21:54:59.714Z,1006.10
2022-12-31T21:55:59.601Z,1006.03
2022-12-31T21:56:59.835Z,1006.12
2022-12-31T21:58:25.209Z,1006.05
2022-12-31T21:58:59.478Z,1006.07
2022-12-31T22:00:31.973Z,1006.09
2022-12-31T22:00:59.718Z,1006.19
2022-12-31T22:01:59.774Z,1006.10
2022-12-31T22:02:59.954Z,1006.06
2022-12-31T22:03:59.493Z,1006.02
2022-12-31T22:05:02.372Z,1006.12
2022-12-31T22:05:59.376Z,1006.11
2022-12-31T22:07:59.247Z,1006.14
2022-12-31T22:08:59.015Z,1006.02
2022-12-31T22:09:59.011Z,1005.99
2022-12-31T22:10:59.008Z,1006.09
2022-12-31T22:11:58.892Z,1006.07
2022-12-31T22:12:59.050Z,1006.04
2022-12-31T22:13:58.897Z,1006.03
2022-12-31T22:15:15.174Z,1006.08
2022-12-31T22:16:04.286Z,1006.10
2022-12-31T22:16:58.780Z,1006.14
2022-12-31T22:17:58.658Z,1006.09
2022-12-31T22:18:58.686Z,1006.03
2022-12-31T22:20:28.168Z,1006.01
2022-12-31T22:20:58.571Z,1006.13
2022-12-31T22:21:58.539Z,1006.13
2022-12-31T22:22:58.423Z,1006.17
2022-12-31T22:23:58.427Z,1006.24
2022-12-31T22:24:58.428Z,1006.31
2022-12-31T22:25:58.306Z,1006.22
2022-12-31T22:26:58.307Z,1006.23
2022-12-31T22:28:36.191Z,1006.17
2022-12-31T22:28:58.190Z,1006.25
2022-12-31T22:29:58.192Z,1006.23
2022-12-31T22:30:58.242Z,1006.26
2022-12-31T22:32:01.116Z,1006.34
2022-12-31T22:32:58.072Z,1006.26
2022-12-31T22:33:58.083Z,1006.29
2022-12-31T22:34:57.980Z,1006.21
2022-12-31T22:35:57.954Z,1006.29
2022-12-31T22:36:57.835Z,1006.19
2022-12-31T22:38:03.270Z,1006.32
2022-12-31T22:38:57.840Z,1006.39
2022-12-31T22:39:57.724Z,1006.42
2022-12-31T22:40:57.726Z,1006.41
2022-12-31T22:41:57.722Z,1006.33
2022-12-31T22:42:57.604Z,1006.45
2022-12-31T22:44:02.957Z,1006.46
2022-12-31T22:44:57.610Z,1006.50
2022-12-31T22:45:57.485Z,1006.48
2022-12-31T22:46:57.526Z,1006.53
2022-12-31T22:47:57.494Z,1006.60
2022-12-31T22:48:57.367Z,1006.64
2022-12-31T22:49:57.309Z,1006.43
2022-12-31T22:50:57.377Z,1006.51
2022-12-31T22:52:00.742Z,1006.52
2022-12-31T22:52:57.255Z,1006.57
2022-12-31T22:53:57.138Z,1006.55
2022-12-31T22:54:57.137Z,1006.54
2022-12-31T22:55:57.071Z,1006.62
2022-12-31T22:56:56.958Z,1006.58
2022-12-31T22:57:56.950Z,1006.68
2022-12-31T22:58:57.018Z,1006.58
2022-12-31T22:59:56.833Z,1006.56
2022-12-31T23:00:56.834Z,1006.52
2022-12-31T23:01:56.830Z,1006.54
2022-12-31T23:02:56.720Z,1006.61
2022-12-31T23:03:56.753Z,1006.54
2022-12-31T23:05:15.246Z,1006.54
2022-12-31T23:05:56.607Z,1006.57
2022-12-31T23:06:56.624Z,1006.55
2022-12-31T23:07:56.603Z,1006.54
2022-12-31T23:08:56.478Z,1006.52
2022-12-31T23:09:56.476Z,1006.58
2022-12-31T23:10:56.462Z,1006.58
2022-12-31T23:11:56.355Z,1006.50
2022-12-31T23:12:56.357Z,1006.55
2022-12-31T23:13:56.361Z,1006.40
2022-12-31T23:14:56.240Z,1006.55
2022-12-31T23:15:56.307Z,1006.55
2022-12-31T23:16:56.225Z,1006.58
2022-12-31T23:17:56.229Z,1006.56
2022-12-31T23:19:01.838Z,1006.49
2022-12-31T23:19:56.005Z,1006.53
2022-12-31T23:20:55.998Z,1006.51
2022-12-31T23:21:56.036Z,1006.50
2022-12-31T23:22:55.902Z,1006.53
2022-12-31T23:23:55.878Z,1006.53
2022-12-31T23:24:55.880Z,1006.55
2022-12-31T23:25:55.759Z,1006.56
2022-12-31T23:26:55.767Z,1006.54
2022-12-31T23:27:55.760Z,1006.53
2022-12-31T23:28:55.646Z,1006.56
